Monday, September 22, 2014
04:20 UTC
  |  Log In   |  Register Free
Airport Search:

Page Field Airport
(KFMY)

FAA data valid effective September 18, 2014 - November 13, 2014 (unless otherwise noted).

 
 
 
 
 
 
 
 
 
 
 
 
 
 

Current Aviation Weather for Page Field Airport (KFMY)

The most recent METAR observation for KFMY was updated at: 0409
METAR Summary (Translated METAR)
KFMY
220353Z AUTO 12003KT 10SM CLR 24/23 A3002 RMK AO2 SLP168 T02390233
KRSW
220353Z 12004KT 10SM CLR 24/17 A3003 RMK AO2 SLP166 T02390167 $
(6.5 nm SE from KFMY)
KPGD
220353Z AUTO 00000KT 10SM CLR 25/23 A3004 RMK AO2 SLP173 T02500228 $
(21.1 nm NW from KFMY)
TAF Summary (Translated TAF)
KFMY
211740Z 2118/2218 26006KT P6SM VCTS SCT035CB SCT100 BKN250 TEMPO 2118/2121 4SM SHRA BKN030 FM220000 VRB03KT P6SM SCT030 BKN100 FM220600 VRB03KT P6SM SCT025 BKN100 FM221000 VRB03KT P6SM VCSH SCT020 BKN060 FM221400 VRB04KT P6SM VCSH SCT015 BKN030
KRSW
(6.5 nm SE from KFMY)
211740Z 2118/2218 26006KT P6SM VCTS SCT035CB SCT100 BKN250 TEMPO 2118/2121 4SM SHRA BKN030 FM220100 VRB03KT P6SM SCT030 BKN100 FM220600 VRB03KT P6SM SCT025 BKN100 FM221000 VRB03KT P6SM VCSH SCT020 BKN060 FM221400 VRB04KT P6SM VCSH SCT015 BKN030
  Airport Weather Conditions for KFMY

 Current Weather at FMY
76° F
Fair
Southeast winds at 4.6 mph
FMY NOAA Radar

Pressure: 30.03 in
Humidity: 91%
Wind: Southeast at 4.6 MPH (4 KT)
Dew Point: 73.0°F
Visibility: 10.00 mi


Airport Weather Forecast for KFMY

Translated METAR and TAF for KFMY
Translated METAR for KFMY (0415 UTC 22 September 2014)
found at http://aviationweather.gov/adds/metars/
 
METAR text: KFMY 220353Z AUTO 12003KT 10SM CLR 24/23 A3002 RMK AO2 SLP168 T02390233
Conditions at: KFMY (FORT MYERS , FL, US) observed 0353 UTC 22 September 2014
Temperature: 23.9°C (75°F)
Dewpoint: 23.3°C (74°F) [RH = 96%]
Pressure (altimeter): 30.02 inches Hg (1016.7 mb)
[Sea-level pressure: 1016.8 mb]
Winds: from the ESE (120 degrees) at 3 MPH (3 knots; 1.6 m/s)
Visibility: 10 or more miles (16+ km)
Ceiling: at least 12,000 feet AGL
Clouds: sky clear below 12,000 feet AGL
Weather: automated observation with no human augmentation;
there may or may not be significant weather present at this time
Translated TAF for KFMY
Forecast for: KFMY (FORT MYERS , FL, US)
TAF Text: KFMY 212329Z 2200/2224 VRB03KT P6SM BKN250
Forecast period: 0000 to 1200 UTC 22 September 2014
Forecast type: FROM: standard forecast or significant change
Winds: variable direction winds at 3 MPH (3 knots; 1.6 m/s)
Visibility: 6 or more miles (10+ km)
Ceiling: 25000 feet AGL
Clouds: broken clouds at 25000 feet AGL
Weather: no significant weather forecast for this period
TAF Text: FM221200 VRB03KT P6SM VCSH SCT025 BKN100
Forecast period: 1200 to 1500 UTC 22 September 2014
Forecast type: FROM: standard forecast or significant change
Winds: variable direction winds at 3 MPH (3 knots; 1.6 m/s)
Visibility: 6 or more miles (10+ km)
Ceiling: 10000 feet AGL
Clouds: scattered clouds at 2500 feet AGL
broken clouds at 10000 feet AGL
Weather: VCSH  (showers in vicinity)
TAF Text: FM221500 20004KT P6SM VCSH SCT025 BKN050
Forecast period: 1500 to 1800 UTC 22 September 2014
Forecast type: FROM: standard forecast or significant change
Winds: from the SSW (200 degrees) at 5 MPH (4 knots; 2.1 m/s)
Visibility: 6 or more miles (10+ km)
Ceiling: 5000 feet AGL
Clouds: scattered clouds at 2500 feet AGL
broken clouds at 5000 feet AGL
Weather: VCSH  (showers in vicinity)
TAF Text: FM221800 22008KT P6SM VCTS BKN040CB
Forecast period: 1800 UTC 22 September 2014 to 0000 UTC 23 September 2014
Forecast type: FROM: standard forecast or significant change
Winds: from the SW (220 degrees) at 9 MPH (8 knots; 4.2 m/s)
Visibility: 6 or more miles (10+ km)
Ceiling: 4000 feet AGL
Clouds: broken clouds at 4000 feet AGL
Weather: VCTS  (thunderstorm in vicinity)

Find All Airport Services Find A Hotel Find A Rental Car Find A Golf Course Find A Restaurant $100 Hamburger



FBO's on the Field
FBO Company Facility Photos Services Transportation Aviation Fuel Prices: Prices include tax
Catering Weather Repair Courtesy Rental Type 100LL JetA JetA+ MOGAS 8087
 
Base Operations at Page Field

Currently rated 4.8 by 2 people
FS:Avfuel
Last Updated: Sep-12
Login to update fuel prices
SS:
Contact Base Operations at Page FieldMore FBO Information
 
Add another FBO Facility Photos Catering Weather Repair Courtesy Rental Type 100LL JetA JetA+ MOGAS 8087
Services Transportation Aviation Fuel Prices: Prices include tax


model-print
model-print
model-print
model-print